Time;durP1;ratioP1;P1;durP2;ratioP2;P2;SDS_P1;SDS_P2;PMS_P1;PMS_P2;Temp;Humidity;BMP_temperature;BMP_pressure;BME280_temperature;BME280_humidity;BME280_pressure;Samples;Min_cycle;Max_cycle;Signal;HPM_P1;HPM_P2
2022/09/05 00:00:26;;;;;;;3.53;2.20;;;20.50;72.30;;;;;;5034257;28;20028;-74
2022/09/05 00:03:19;;;;;;;5.43;2.13;;;20.40;72.30;;;;;;5033118;28;20033;-74
2022/09/05 00:05:59;;;;;;;4.97;2.30;;;20.40;72.50;;;;;;5034323;28;20025;-74
2022/09/05 00:08:35;;;;;;;6.20;2.10;;;20.40;72.50;;;;;;5032752;28;20030;-74
2022/09/05 00:11:15;;;;;;;5.78;2.55;;;20.40;72.60;;;;;;5034084;28;20037;-74
2022/09/05 00:14:10;;;;;;;6.43;2.10;;;20.30;72.90;;;;;;5032612;28;20060;-74
2022/09/05 00:17:11;;;;;;;3.58;1.77;;;20.30;73.10;;;;;;5032988;28;20033;-74
2022/09/05 00:19:53;;;;;;;7.28;2.20;;;20.20;73.30;;;;;;5029981;28;20053;-74
2022/09/05 00:22:31;;;;;;;3.50;1.98;;;20.20;73.40;;;;;;5034137;28;20029;-74
2022/09/05 00:25:02;;;;;;;3.78;1.95;;;20.20;73.60;;;;;;5032857;28;20532;-74
2022/09/05 00:27:38;;;;;;;5.93;1.88;;;20.20;73.80;;;;;;5034008;28;20032;-74
2022/09/05 00:30:06;;;;;;;6.00;1.98;;;20.20;73.90;;;;;;5033848;28;20462;-74
2022/09/05 00:32:43;;;;;;;7.82;2.28;;;20.10;74.10;;;;;;5032397;28;20033;-74
2022/09/05 00:35:23;;;;;;;4.15;2.28;;;20.10;74.20;;;;;;5033905;28;20439;-74
2022/09/05 00:37:50;;;;;;;4.80;2.03;;;20.10;74.30;;;;;;5033733;28;20025;-74
2022/09/05 00:40:32;;;;;;;5.68;2.40;;;20.00;74.30;;;;;;5032294;28;20508;-74
2022/09/05 00:43:08;;;;;;;4.38;2.22;;;20.10;74.60;;;;;;5032426;28;20393;-74
2022/09/05 00:45:36;;;;;;;4.75;2.30;;;20.00;74.60;;;;;;5033724;28;20497;-74
2022/09/05 00:48:22;;;;;;;4.63;2.50;;;20.00;74.60;;;;;;5033681;28;20116;-74
2022/09/05 00:51:01;;;;;;;5.50;2.38;;;20.00;74.90;;;;;;5033617;28;20382;-74
2022/09/05 00:53:58;;;;;;;5.68;2.70;;;19.90;75.00;;;;;;5032004;28;20458;-74
2022/09/05 00:56:42;;;;;;;6.13;2.22;;;19.90;75.10;;;;;;5024254;28;20038;-74
2022/09/05 00:59:27;;;;;;;5.25;2.63;;;19.90;75.20;;;;;;5032190;28;20492;-75
2022/09/05 01:02:03;;;;;;;5.10;2.22;;;19.90;75.40;;;;;;5036638;28;20048;-75
2022/09/05 01:04:47;;;;;;;5.13;2.70;;;19.90;75.60;;;;;;5037557;28;20060;-74
2022/09/05 01:07:22;;;;;;;6.75;2.38;;;19.90;75.60;;;;;;5037746;28;20033;-74
2022/09/05 01:10:38;;;;;;;4.55;2.30;;;19.90;75.40;;;;;;5036088;28;20068;-74
2022/09/05 01:13:36;;;;;;;4.80;2.58;;;19.80;75.40;;;;;;5035504;28;20112;-74
2022/09/05 01:16:28;;;;;;;4.38;2.00;;;19.80;75.30;;;;;;5029369;28;20072;-74
2022/09/05 01:19:17;;;;;;;4.85;2.10;;;19.80;75.30;;;;;;5037015;28;20029;-74
2022/09/05 01:22:27;;;;;;;3.97;2.17;;;19.70;75.30;;;;;;5037154;28;20040;-74
2022/09/05 01:25:16;;;;;;;6.03;2.28;;;19.70;75.30;;;;;;5014592;28;20018;-74
2022/09/05 01:28:30;;;;;;;6.55;2.90;;;19.70;75.40;;;;;;4998735;28;20482;-74
2022/09/05 01:31:22;;;;;;;5.75;2.50;;;19.70;75.40;;;;;;5034026;28;20030;-74
2022/09/05 01:34:19;;;;;;;5.28;2.63;;;19.70;75.50;;;;;;5036716;28;20504;-74
2022/09/05 01:37:09;;;;;;;6.93;2.65;;;19.70;75.70;;;;;;5037117;28;20026;-74
2022/09/05 01:40:12;;;;;;;6.45;3.03;;;19.70;75.80;;;;;;5036829;28;20099;-74
2022/09/05 01:42:42;;;;;;;6.70;3.22;;;19.60;76.00;;;;;;5036710;28;20032;-74
2022/09/05 01:45:28;;;;;;;4.78;2.78;;;19.60;76.00;;;;;;5035518;28;20036;-74
2022/09/05 01:48:03;;;;;;;6.95;2.88;;;19.60;76.20;;;;;;5036530;28;20100;-74
2022/09/05 01:50:35;;;;;;;5.15;3.22;;;19.60;76.30;;;;;;5036679;28;20030;-74
2022/09/05 01:53:24;;;;;;;7.28;3.42;;;19.50;76.40;;;;;;5036536;28;20037;-74
2022/09/05 01:56:24;;;;;;;6.15;2.85;;;19.50;76.40;;;;;;5035318;28;20133;-74
2022/09/05 01:58:55;;;;;;;7.18;3.35;;;19.50;76.60;;;;;;5036493;28;20454;-74
2022/09/05 02:01:39;;;;;;;7.25;3.55;;;19.50;76.60;;;;;;5036613;28;20029;-74
2022/09/05 02:04:42;;;;;;;7.40;4.20;;;19.50;76.70;;;;;;5035085;28;20026;-75
2022/09/05 02:07:29;;;;;;;10.45;4.28;;;19.40;76.80;;;;;;5036329;28;20026;-75
2022/09/05 02:10:06;;;;;;;6.50;3.95;;;19.40;76.80;;;;;;5034901;28;20051;-74
2022/09/05 02:12:54;;;;;;;7.45;4.07;;;19.40;76.90;;;;;;5035526;28;20057;-74
2022/09/05 02:15:27;;;;;;;7.32;4.22;;;19.40;77.10;;;;;;5036005;28;20473;-75
2022/09/05 02:17:56;;;;;;;;;;;19.40;77.20;;;;;;5036422;28;20093;-75
2022/09/05 02:20:31;;;;;;;7.90;3.17;;;19.40;77.20;;;;;;5035782;28;20373;-75
2022/09/05 02:23:22;;;;;;;7.55;3.95;;;19.40;77.20;;;;;;5034912;28;20075;-75
2022/09/05 02:26:09;;;;;;;8.32;4.25;;;19.30;77.30;;;;;;5034785;28;20018;-75
2022/09/05 02:28:58;;;;;;;5.93;3.72;;;19.30;77.60;;;;;;5036256;28;20036;-75
2022/09/05 02:31:45;;;;;;;8.57;4.05;;;19.30;77.70;;;;;;5036064;28;20052;-75
2022/09/05 02:34:32;;;;;;;6.80;4.32;;;19.30;77.90;;;;;;5035780;28;20025;-75
2022/09/05 02:37:10;;;;;;;6.88;4.13;;;19.30;78.00;;;;;;5035948;28;20162;-75
2022/09/05 02:39:43;;;;;;;8.30;3.85;;;19.30;78.10;;;;;;5034715;28;20121;-75
2022/09/05 02:42:21;;;;;;;6.15;4.15;;;19.30;78.10;;;;;;5035992;28;20025;-74
2022/09/05 02:45:22;;;;;;;7.35;4.13;;;19.30;78.30;;;;;;5035830;28;20033;-74
2022/09/05 02:47:52;;;;;;;8.23;4.70;;;19.30;78.40;;;;;;5034396;28;20107;-74
2022/09/05 02:50:50;;;;;;;7.53;4.97;;;19.20;78.30;;;;;;5036014;28;20025;-74
2022/09/05 02:53:18;;;;;;;7.90;4.63;;;19.20;78.50;;;;;;5035822;28;20021;-74
2022/09/05 02:56:13;;;;;;;7.53;4.72;;;19.20;78.60;;;;;;5035295;28;20033;-75
2022/09/05 02:58:46;;;;;;;7.30;4.68;;;19.20;78.70;;;;;;5035318;28;20060;-73
2022/09/05 03:01:33;;;;;;;7.78;4.97;;;19.20;78.70;;;;;;5035360;28;20109;-74
2022/09/05 03:04:43;;;;;;;9.02;4.72;;;19.20;78.80;;;;;;5035229;28;20060;-74
2022/09/05 03:07:26;;;;;;;8.57;5.05;;;19.10;78.80;;;;;;5034962;28;20028;-74
2022/09/05 03:09:58;;;;;;;8.63;5.25;;;19.10;78.80;;;;;;5035334;28;20032;-73
2022/09/05 03:12:45;;;;;;;8.15;5.32;;;19.10;78.90;;;;;;5035167;28;20026;-74
2022/09/05 03:15:23;;;;;;;10.50;5.78;;;19.10;79.10;;;;;;5033991;28;20065;-74
2022/09/05 03:18:00;;;;;;;8.52;5.53;;;19.00;79.10;;;;;;5035031;28;20022;-73
2022/09/05 03:20:43;;;;;;;9.57;5.95;;;19.00;79.30;;;;;;5034674;28;20398;-73
2022/09/05 03:23:36;;;;;;;10.15;5.60;;;19.00;79.40;;;;;;5034936;28;20381;-74
2022/09/05 03:26:07;;;;;;;9.25;5.90;;;19.00;79.50;;;;;;5033235;28;20115;-73
2022/09/05 03:29:14;;;;;;;9.18;5.57;;;18.90;79.50;;;;;;5034687;28;20025;-74
2022/09/05 03:31:55;;;;;;;11.52;6.60;;;19.00;79.70;;;;;;5034713;28;20477;-74
2022/09/05 03:34:49;;;;;;;9.95;6.88;;;18.90;79.70;;;;;;5033343;28;20052;-74
2022/09/05 03:37:51;;;;;;;11.10;6.40;;;18.90;79.90;;;;;;5033575;28;20033;-74
2022/09/05 03:40:23;;;;;;;9.50;6.30;;;18.90;80.00;;;;;;5034563;28;20429;-74
2022/09/05 03:43:07;;;;;;;8.27;6.30;;;18.80;80.00;;;;;;5034588;28;20072;-74
2022/09/05 03:45:57;;;;;;;8.98;6.43;;;18.80;80.20;;;;;;5034550;28;20030;-74
2022/09/05 03:48:41;;;;;;;10.32;6.97;;;18.80;80.30;;;;;;5034805;28;20022;-74
2022/09/05 03:51:21;;;;;;;9.07;6.38;;;18.80;80.40;;;;;;5033181;28;20437;-74
2022/09/05 03:54:14;;;;;;;10.02;7.10;;;18.80;80.50;;;;;;5034364;28;20437;-74
2022/09/05 03:57:07;;;;;;;9.68;6.75;;;18.70;80.70;;;;;;5032901;28;20021;-74
2022/09/05 04:00:08;;;;;;;12.13;7.30;;;18.70;80.70;;;;;;5034439;28;20021;-74
2022/09/05 04:03:04;;;;;;;10.07;6.82;;;18.70;81.00;;;;;;5034033;28;20478;-74
2022/09/05 04:05:35;;;;;;;11.63;7.22;;;18.70;81.10;;;;;;5034154;28;20488;-75
2022/09/05 04:08:13;;;;;;;11.27;7.10;;;18.60;81.10;;;;;;5032815;28;20025;-74
2022/09/05 04:11:08;;;;;;;10.00;7.38;;;18.60;81.30;;;;;;5032789;28;20028;-74
2022/09/05 04:14:07;;;;;;;12.13;6.70;;;18.60;81.50;;;;;;5031492;28;20148;-74
2022/09/05 04:16:53;;;;;;;12.00;7.93;;;18.60;81.60;;;;;;5023511;28;20048;-74
2022/09/05 04:19:34;;;;;;;10.63;7.22;;;18.50;81.70;;;;;;5033464;28;20028;-75
2022/09/05 04:22:11;;;;;;;10.73;6.97;;;18.50;81.90;;;;;;5033115;28;20033;-74
2022/09/05 04:24:47;;;;;;;10.68;7.13;;;18.40;81.90;;;;;;5032348;28;20125;-74
2022/09/05 04:27:41;;;;;;;11.77;7.03;;;18.40;82.10;;;;;;5032248;28;20087;-74
2022/09/05 04:30:30;;;;;;;9.97;7.13;;;18.40;82.30;;;;;;5033354;28;20338;-74
2022/09/05 04:33:02;;;;;;;10.88;7.15;;;18.40;82.40;;;;;;5033335;28;20466;-74
2022/09/05 04:35:37;;;;;;;11.35;8.05;;;18.40;82.50;;;;;;5031700;28;20032;-75
2022/09/05 04:38:32;;;;;;;13.20;8.30;;;18.40;82.70;;;;;;5033470;28;20028;-74
2022/09/05 04:41:03;;;;;;;12.05;8.15;;;18.30;82.80;;;;;;5033257;28;20028;-75
2022/09/05 04:43:36;;;;;;;11.55;8.25;;;18.30;82.80;;;;;;5031876;28;20056;-75
2022/09/05 04:46:23;;;;;;;13.90;8.15;;;18.30;83.00;;;;;;5032145;28;20025;-75
2022/09/05 04:49:12;;;;;;;13.90;8.27;;;18.30;83.20;;;;;;5033332;28;20083;-75
2022/09/05 04:52:05;;;;;;;11.73;8.10;;;18.30;83.30;;;;;;5026121;28;20034;-74
2022/09/05 04:54:48;;;;;;;10.43;7.63;;;18.30;83.40;;;;;;5042924;28;20391;-80
2022/09/05 04:57:32;;;;;;;13.43;8.88;;;18.20;83.40;;;;;;5038326;28;20033;-80
2022/09/05 05:00:24;;;;;;;11.35;8.73;;;18.20;83.50;;;;;;5041713;28;20021;-80
2022/09/05 05:02:58;;;;;;;14.75;9.25;;;18.20;83.70;;;;;;5028676;28;20104;-79
2022/09/05 05:05:29;;;;;;;12.45;9.13;;;18.20;83.80;;;;;;5031401;28;20031;-79
2022/09/05 05:07:59;;;;;;;13.45;8.57;;;18.20;83.90;;;;;;5031239;28;20027;-80
2022/09/05 05:10:39;;;;;;;15.48;10.00;;;18.20;84.00;;;;;;5032283;28;20025;-81
2022/09/05 05:13:19;;;;;;;16.35;9.88;;;18.10;84.10;;;;;;5031207;28;20376;-80
2022/09/05 05:15:50;;;;;;;13.32;9.18;;;18.20;84.20;;;;;;5026123;28;20033;-81
2022/09/05 05:18:29;;;;;;;14.55;9.25;;;18.20;84.30;;;;;;5011947;28;20026;-80
2022/09/05 05:21:02;;;;;;;13.07;9.23;;;18.20;84.40;;;;;;5013126;28;20088;-80
2022/09/05 05:23:43;;;;;;;12.55;9.60;;;18.10;84.50;;;;;;5013199;28;20026;-80
2022/09/05 05:26:29;;;;;;;19.77;10.40;;;18.20;84.70;;;;;;5013261;28;20029;-81
2022/09/05 05:29:00;;;;;;;14.07;9.65;;;18.10;84.70;;;;;;5013292;28;20030;-80
2022/09/05 05:31:30;;;;;;;16.10;10.68;;;18.20;84.80;;;;;;5013146;28;20026;-81
2022/09/05 05:34:00;;;;;;;21.55;9.95;;;18.20;84.90;;;;;;5013272;28;20053;-80
2022/09/05 05:36:38;;;;;;;14.43;9.93;;;18.10;85.00;;;;;;5013319;28;20037;-81
2022/09/05 05:39:13;;;;;;;17.48;10.68;;;18.20;85.10;;;;;;5012065;28;20026;-81
2022/09/05 05:41:43;;;;;;;14.88;10.77;;;18.20;85.20;;;;;;5013237;28;20080;-80
2022/09/05 05:44:18;;;;;;;15.80;10.68;;;18.20;85.30;;;;;;5013164;28;20026;-81
2022/09/05 05:47:15;;;;;;;12.95;10.48;;;18.20;85.50;;;;;;5030608;28;20033;-81
2022/09/05 05:49:50;;;;;;;16.45;10.35;;;18.30;85.50;;;;;;5036409;28;20537;-81
2022/09/05 05:52:53;;;;;;;13.60;10.35;;;18.30;85.50;;;;;;5036453;28;20025;-81
2022/09/05 05:56:07;;;;;;;16.95;10.35;;;18.30;85.60;;;;;;5034971;28;20029;-82
2022/09/05 05:58:56;;;;;;;14.05;9.05;;;18.30;85.60;;;;;;5051910;28;20032;-82
2022/09/05 06:01:50;;;;;;;14.73;9.30;;;18.40;85.70;;;;;;5034843;28;20113;-82
2022/09/05 06:04:39;;;;;;;14.33;9.83;;;18.40;85.60;;;;;;5036356;28;20101;-81
2022/09/05 06:07:14;;;;;;;13.95;10.02;;;18.40;85.70;;;;;;5034991;28;20033;-81
2022/09/05 06:09:42;;;;;;;14.70;9.73;;;18.40;85.70;;;;;;5034826;28;20025;-82
2022/09/05 06:12:25;;;;;;;13.18;9.63;;;18.50;85.80;;;;;;5026328;28;20038;-81
2022/09/05 06:15:12;;;;;;;15.13;10.25;;;18.50;85.90;;;;;;5030812;28;20034;-81
2022/09/05 06:17:57;;;;;;;15.15;10.75;;;18.60;86.00;;;;;;5020561;28;20029;-82
2022/09/05 06:20:44;;;;;;;16.75;9.50;;;18.60;85.90;;;;;;5031156;28;20095;-80
2022/09/05 06:23:28;;;;;;;14.63;10.00;;;18.70;86.00;;;;;;5034259;28;20397;-81
2022/09/05 06:25:56;;;;;;;;;;;18.70;85.90;;;;;;5034514;28;20072;-80
2022/09/05 06:28:40;;;;;;;15.30;8.45;;;18.80;85.90;;;;;;5035822;28;19905;-80
2022/09/05 06:31:25;;;;;;;15.85;10.02;;;18.80;85.70;;;;;;5033933;28;20136;-79
2022/09/05 06:33:50;;;;;;;20.98;9.85;;;18.90;85.90;;;;;;5035446;28;20029;-80
2022/09/05 06:36:46;;;;;;;13.23;9.40;;;18.90;85.80;;;;;;5032359;28;20048;-80
2022/09/05 06:39:21;;;;;;;15.02;9.23;;;18.90;85.90;;;;;;5021099;28;20018;-81
2022/09/05 06:42:10;;;;;;;18.40;9.52;;;19.00;85.90;;;;;;5016299;28;20022;-81
2022/09/05 06:45:03;;;;;;;15.35;9.43;;;19.10;85.90;;;;;;5017113;28;20044;-81
2022/09/05 06:47:31;;;;;;;12.73;8.13;;;19.10;85.90;;;;;;5015808;28;20072;-81
2022/09/05 06:50:10;;;;;;;15.77;8.60;;;19.20;85.80;;;;;;5028927;28;20366;-81
2022/09/05 06:52:53;;;;;;;11.68;7.38;;;19.20;85.70;;;;;;5025598;28;20086;-81
2022/09/05 06:55:37;;;;;;;10.45;8.45;;;19.30;85.70;;;;;;5021535;28;20469;-81
2022/09/05 06:58:24;;;;;;;12.35;8.10;;;19.40;85.60;;;;;;5026316;28;20022;-81
2022/09/05 07:00:53;;;;;;;10.27;7.53;;;19.50;85.50;;;;;;5022900;28;20018;-81
2022/09/05 07:04:08;;;;;;;14.45;8.35;;;19.50;85.30;;;;;;5014874;28;20029;-82
2022/09/05 07:07:01;;;;;;;14.25;7.45;;;19.60;85.20;;;;;;4996138;28;20101;-82
2022/09/05 07:09:36;;;;;;;11.80;7.72;;;19.70;85.00;;;;;;5015014;28;20054;-81
2022/09/05 07:12:01;;;;;;;11.60;8.15;;;19.80;84.90;;;;;;5014949;28;20034;-82
2022/09/05 07:14:33;;;;;;;14.10;8.40;;;19.90;84.80;;;;;;5017282;28;20562;-82
2022/09/05 07:17:16;;;;;;;12.05;7.78;;;19.90;84.70;;;;;;5022752;28;20022;-82
2022/09/05 07:19:48;;;;;;;12.77;8.05;;;20.00;84.50;;;;;;5026572;28;20052;-81
2022/09/05 07:22:50;;;;;;;12.80;8.00;;;20.10;84.40;;;;;;5030676;28;20021;-82
2022/09/05 07:25:21;;;;;;;14.57;8.00;;;20.10;84.30;;;;;;5022252;28;20111;-81
2022/09/05 07:28:02;;;;;;;17.58;6.65;;;20.20;84.10;;;;;;5034675;28;20028;-80
2022/09/05 07:30:29;;;;;;;15.32;7.97;;;20.20;83.90;;;;;;5034582;28;20109;-80
2022/09/05 07:32:57;;;;;;;11.18;6.90;;;20.30;83.80;;;;;;5033049;28;20392;-81
2022/09/05 07:35:23;;;;;;;13.30;8.05;;;20.40;83.60;;;;;;5034510;28;20057;-82
2022/09/05 07:38:20;;;;;;;9.68;7.13;;;20.40;83.40;;;;;;5028510;28;20076;-82
2022/09/05 07:41:04;;;;;;;12.95;6.80;;;20.50;83.20;;;;;;5014563;28;20121;-82
2022/09/05 07:43:38;;;;;;;8.82;6.57;;;20.60;83.00;;;;;;5027217;28;20377;-82
2022/09/05 07:46:35;;;;;;;10.05;7.05;;;20.70;82.80;;;;;;5034407;28;20104;-83
2022/09/05 07:49:11;;;;;;;13.05;6.90;;;20.70;82.50;;;;;;5029055;28;20037;-82
2022/09/05 07:51:39;;;;;;;11.98;7.10;;;20.80;82.20;;;;;;5014392;28;20052;-81
2022/09/05 07:54:17;;;;;;;12.50;6.95;;;20.80;81.90;;;;;;5014771;28;20036;-81
2022/09/05 07:56:42;;;;;;;10.80;6.95;;;20.90;82.00;;;;;;5030635;28;20035;-81
2022/09/05 07:59:12;;;;;;;12.65;6.97;;;21.00;81.50;;;;;;5034358;28;20100;-81
2022/09/05 08:01:44;;;;;;;12.10;6.68;;;21.00;81.20;;;;;;5034025;28;20068;-81
2022/09/05 08:04:22;;;;;;;11.70;5.22;;;21.00;81.10;;;;;;5033976;28;20104;-81
2022/09/05 08:06:51;;;;;;;8.10;5.22;;;21.10;80.90;;;;;;5034400;28;20021;-81
2022/09/05 08:09:22;;;;;;;8.75;5.95;;;21.20;80.60;;;;;;5032625;28;20034;-81
2022/09/05 08:11:50;;;;;;;8.82;5.38;;;21.20;80.40;;;;;;5013573;28;20133;-79
2022/09/05 08:14:54;;;;;;;9.75;5.68;;;21.30;80.20;;;;;;5012735;28;20029;-80
2022/09/05 08:17:23;;;;;;;9.93;4.90;;;21.30;79.90;;;;;;5014289;28;20044;-80
2022/09/05 08:20:13;;;;;;;7.85;5.22;;;21.40;79.70;;;;;;5012552;28;20041;-80
2022/09/05 08:22:57;;;;;;;13.10;6.00;;;21.50;79.40;;;;;;5014031;28;20088;-81
2022/09/05 08:25:31;;;;;;;8.88;5.78;;;21.60;79.20;;;;;;5012654;28;20018;-81
2022/09/05 08:28:33;;;;;;;8.75;5.78;;;21.60;78.90;;;;;;5028497;28;20391;-82
2022/09/05 08:31:17;;;;;;;11.63;5.07;;;21.70;78.80;;;;;;5028283;28;20041;-82
2022/09/05 08:33:46;;;;;;;7.15;4.88;;;21.80;78.50;;;;;;5033668;28;20021;-82
2022/09/05 08:36:23;;;;;;;9.90;4.88;;;21.90;78.30;;;;;;5037670;28;20174;-82
2022/09/05 08:38:53;;;;;;;9.05;4.53;;;22.00;78.20;;;;;;5051413;28;20021;-82
2022/09/05 08:41:50;;;;;;;7.85;4.18;;;22.10;78.00;;;;;;5042857;28;20473;-81
2022/09/05 08:44:55;;;;;;;6.20;3.70;;;22.20;77.50;;;;;;5028074;28;20541;-76
2022/09/05 08:47:44;;;;;;;10.15;3.80;;;22.30;77.10;;;;;;5041519;28;20044;-76
2022/09/05 08:50:46;;;;;;;7.30;3.97;;;22.40;76.90;;;;;;5039331;28;20017;-76
2022/09/05 08:53:38;;;;;;;5.97;3.75;;;22.50;76.60;;;;;;5030887;28;20087;-76
2022/09/05 08:56:16;;;;;;;7.80;3.30;;;22.60;77.00;;;;;;5029126;28;20427;-76
2022/09/05 08:59:25;;;;;;;7.65;3.25;;;22.70;76.00;;;;;;5041520;28;20452;-76
2022/09/05 09:01:51;;;;;;;7.10;3.28;;;22.80;75.50;;;;;;5037876;28;20026;-76
2022/09/05 09:04:38;;;;;;;5.03;2.53;;;22.90;75.30;;;;;;5045261;28;20151;-75
2022/09/05 09:07:15;;;;;;;5.70;2.17;;;23.10;74.90;;;;;;5037489;28;20053;-76
2022/09/05 09:09:59;;;;;;;4.70;2.42;;;23.20;74.40;;;;;;5043912;28;20036;-76
2022/09/05 09:12:42;;;;;;;5.20;2.13;;;23.30;73.90;;;;;;5040251;28;20025;-75
2022/09/05 09:15:37;;;;;;;8.17;2.00;;;23.50;73.30;;;;;;5049660;28;20054;-76
2022/09/05 09:18:39;;;;;;;6.28;1.73;;;23.60;72.60;;;;;;5036266;28;20298;-76
2022/09/05 09:21:23;;;;;;;8.98;1.52;;;23.70;72.10;;;;;;5035076;28;20069;-77
2022/09/05 09:24:02;;;;;;;7.30;1.60;;;23.90;71.50;;;;;;5029939;28;20022;-76
2022/09/05 09:26:36;;;;;;;5.40;1.58;;;24.00;71.00;;;;;;5040931;28;20028;-76
2022/09/05 09:29:08;;;;;;;4.25;1.20;;;24.10;70.40;;;;;;5047056;28;20044;-77
2022/09/05 09:31:48;;;;;;;3.97;1.23;;;24.10;69.50;;;;;;5048433;28;20014;-76
2022/09/05 09:34:28;;;;;;;2.58;1.15;;;24.30;68.60;;;;;;5042473;28;20025;-76
2022/09/05 09:37:13;;;;;;;4.72;1.30;;;24.40;68.00;;;;;;5036574;28;20025;-76
2022/09/05 09:40:16;;;;;;;3.33;1.08;;;24.50;67.10;;;;;;5039635;28;20478;-75
2022/09/05 09:43:01;;;;;;;3.30;1.17;;;24.60;66.10;;;;;;5034022;28;20029;-75
2022/09/05 09:45:52;;;;;;;3.45;1.02;;;24.70;65.90;;;;;;5042207;28;20112;-76
2022/09/05 09:48:40;;;;;;;3.00;1.00;;;24.80;65.60;;;;;;5047273;28;20037;-76
2022/09/05 09:51:17;;;;;;;4.55;0.90;;;25.00;64.80;;;;;;5041062;28;20025;-77
2022/09/05 09:54:02;;;;;;;3.40;0.82;;;25.00;65.00;;;;;;5042996;28;20026;-76
2022/09/05 09:56:45;;;;;;;2.80;0.90;;;25.10;64.10;;;;;;5046443;28;20359;-76
2022/09/05 09:59:16;;;;;;;2.55;0.90;;;25.20;63.30;;;;;;5037852;28;20056;-83
2022/09/05 10:02:42;;;;;;;2.88;0.68;;;25.40;62.90;;;;;;5036195;28;20100;-76
2022/09/05 10:05:40;;;;;;;4.38;0.93;;;25.40;61.40;;;;;;5018698;28;20151;-76
2022/09/05 10:08:21;;;;;;;2.13;0.60;;;25.60;61.00;;;;;;5040182;28;20354;-75
2022/09/05 10:11:06;;;;;;;2.15;0.70;;;25.80;60.80;;;;;;5036185;28;20064;-75
2022/09/05 10:13:40;;;;;;;2.75;0.77;;;25.90;60.00;;;;;;5048420;28;20034;-75
2022/09/05 10:16:24;;;;;;;1.95;0.82;;;26.00;59.80;;;;;;5046613;28;20116;-75
2022/09/05 10:19:11;;;;;;;2.38;0.90;;;26.20;59.20;;;;;;5032959;28;20471;-76
2022/09/05 10:21:51;;;;;;;1.05;0.50;;;26.40;59.20;;;;;;5026652;28;20078;-76
2022/09/05 10:24:38;;;;;;;2.50;0.75;;;26.70;57.70;;;;;;5032376;28;20025;-76
2022/09/05 10:27:34;;;;;;;1.67;0.50;;;26.80;57.00;;;;;;5022529;28;20091;-76
2022/09/05 10:30:24;;;;;;;1.33;0.60;;;27.20;55.90;;;;;;5033757;28;20904;-76
2022/09/05 10:33:08;;;;;;;3.97;0.50;;;27.40;55.70;;;;;;5029543;28;20029;-76
2022/09/05 10:35:39;;;;;;;1.80;0.60;;;27.70;54.70;;;;;;5040991;28;20036;-76
2022/09/05 10:38:17;;;;;;;1.60;0.55;;;27.90;54.80;;;;;;5037946;28;20053;-76
2022/09/05 10:40:46;;;;;;;1.60;0.50;;;28.10;54.10;;;;;;5035608;28;20025;-75
2022/09/05 10:43:26;;;;;;;4.55;0.60;;;28.30;53.50;;;;;;5033834;28;20024;-76
2022/09/05 10:46:07;;;;;;;1.33;0.40;;;28.50;52.70;;;;;;5029352;28;20028;-76
2022/09/05 10:48:45;;;;;;;2.00;0.40;;;28.80;51.40;;;;;;5039393;28;20520;-78
2022/09/05 10:51:42;;;;;;;4.78;0.68;;;29.10;50.50;;;;;;5034739;28;20447;-78
2022/09/05 10:54:08;;;;;;;2.17;0.43;;;29.30;50.20;;;;;;5038201;28;20025;-79
2022/09/05 10:56:46;;;;;;;2.25;0.60;;;29.50;50.20;;;;;;5046327;28;20381;-76
2022/09/05 10:59:28;;;;;;;2.35;0.40;;;29.80;50.00;;;;;;5035777;28;20048;-77
2022/09/05 11:02:02;;;;;;;1.23;0.43;;;30.10;48.80;;;;;;5025291;28;20369;-77
2022/09/05 11:04:57;;;;;;;1.02;0.45;;;30.30;48.60;;;;;;5033626;28;20104;-77
2022/09/05 11:07:38;;;;;;;1.70;0.50;;;30.50;48.10;;;;;;5039939;28;20040;-77
2022/09/05 11:10:16;;;;;;;1.92;0.52;;;30.80;47.60;;;;;;5029474;28;20022;-78
2022/09/05 11:12:57;;;;;;;2.25;0.30;;;31.10;46.70;;;;;;5031212;28;20053;-77
2022/09/05 11:15:30;;;;;;;2.35;0.43;;;31.30;46.20;;;;;;5058825;28;20500;-78
2022/09/05 11:18:09;;;;;;;1.80;0.50;;;31.60;45.30;;;;;;5036343;28;20539;-77
2022/09/05 11:20:53;;;;;;;1.05;0.40;;;31.80;44.10;;;;;;5031600;28;20049;-77
2022/09/05 11:23:40;;;;;;;1.02;0.50;;;32.10;43.60;;;;;;5020095;28;20053;-78
2022/09/05 11:26:17;;;;;;;1.85;0.57;;;32.30;43.40;;;;;;5037844;28;20052;-77
2022/09/05 11:28:55;;;;;;;2.05;0.50;;;32.50;43.40;;;;;;5042331;28;20370;-77
2022/09/05 11:31:27;;;;;;;1.73;0.50;;;32.80;42.70;;;;;;5048604;28;20041;-76
2022/09/05 11:34:12;;;;;;;3.30;0.60;;;33.00;42.70;;;;;;5051683;28;20017;-81
2022/09/05 11:36:50;;;;;;;2.33;0.50;;;33.20;41.50;;;;;;5041666;28;20025;-81
2022/09/05 11:39:49;;;;;;;1.15;0.32;;;33.40;41.70;;;;;;5032987;28;20017;-81
2022/09/05 11:42:33;;;;;;;0.70;0.30;;;33.60;41.50;;;;;;5037414;28;20035;-81
2022/09/05 11:45:08;;;;;;;0.65;0.30;;;34.00;41.10;;;;;;5037574;28;20091;-84
2022/09/05 11:47:45;;;;;;;1.70;0.40;;;34.20;40.90;;;;;;5042674;28;20029;-84
2022/09/05 11:50:16;;;;;;;1.30;0.40;;;34.50;40.60;;;;;;5041742;28;20052;-83
2022/09/05 11:53:05;;;;;;;1.58;0.40;;;34.80;40.60;;;;;;5026666;28;20022;-82
2022/09/05 11:55:42;;;;;;;1.60;0.50;;;35.00;39.80;;;;;;5040958;28;20057;-82
2022/09/05 11:58:37;;;;;;;1.27;0.50;;;35.30;39.80;;;;;;5040670;28;20021;-83
2022/09/05 12:01:15;;;;;;;1.65;0.40;;;35.50;39.00;;;;;;5035617;28;20032;-83
2022/09/05 12:03:58;;;;;;;2.33;0.40;;;35.80;39.20;;;;;;5013512;28;20494;-83
2022/09/05 12:07:02;;;;;;;2.45;0.30;;;36.00;38.80;;;;;;5032532;28;20033;-82
2022/09/05 12:09:52;;;;;;;1.73;0.47;;;36.30;38.00;;;;;;5038596;28;20087;-83
2022/09/05 12:12:42;;;;;;;2.08;0.52;;;36.50;37.50;;;;;;5034011;28;20117;-84
2022/09/05 12:15:15;;;;;;;1.20;0.47;;;36.80;37.00;;;;;;5026151;28;20119;-84
2022/09/05 12:18:03;;;;;;;0.98;0.40;;;37.00;36.90;;;;;;5030489;28;20029;-86
2022/09/05 12:20:45;;;;;;;1.33;0.40;;;37.20;35.80;;;;;;5029054;28;20054;-83
2022/09/05 12:23:11;;;;;;;2.40;0.50;;;37.40;36.00;;;;;;5027470;28;20120;-83
2022/09/05 12:25:56;;;;;;;1.45;0.40;;;37.40;35.80;;;;;;5036439;28;20163;-83
2022/09/05 12:28:43;;;;;;;1.23;0.40;;;37.50;35.50;;;;;;5036959;28;20611;-86
2022/09/05 12:31:31;;;;;;;1.30;0.50;;;37.60;34.90;;;;;;5033872;28;20044;-83
2022/09/05 12:33:59;;;;;;;1.70;0.45;;;37.80;35.20;;;;;;5034354;28;20061;-83
2022/09/05 12:36:41;;;;;;;1.05;0.40;;;38.00;35.20;;;;;;5053731;28;20465;-83
2022/09/05 12:39:33;;;;;;;2.65;0.43;;;38.20;34.40;;;;;;5046499;28;20041;-83
2022/09/05 12:42:28;;;;;;;1.00;0.43;;;38.30;34.20;;;;;;5033693;28;20108;-84
2022/09/05 12:45:17;;;;;;;1.00;0.30;;;38.60;34.30;;;;;;5031940;28;20390;-83
2022/09/05 12:48:12;;;;;;;1.08;0.50;;;38.80;34.00;;;;;;5033488;28;20045;-84
2022/09/05 12:50:41;;;;;;;1.38;0.55;;;39.00;34.20;;;;;;5031701;28;20038;-85
2022/09/05 12:53:12;;;;;;;3.42;0.50;;;39.10;34.10;;;;;;5033164;28;20084;-83
2022/09/05 12:55:51;;;;;;;1.77;0.50;;;39.30;33.80;;;;;;5031651;28;20400;-83
2022/09/05 12:58:23;;;;;;;1.00;0.50;;;39.50;33.60;;;;;;5021289;28;20030;-84
2022/09/05 13:00:50;;;;;;;1.20;0.52;;;39.70;33.50;;;;;;5013390;28;20029;-82
2022/09/05 13:03:26;;;;;;;0.90;0.40;;;39.90;33.80;;;;;;5021258;28;20429;-82
2022/09/05 13:06:03;;;;;;;2.25;0.40;;;40.00;33.20;;;;;;5033411;28;20033;-82
2022/09/05 13:08:46;;;;;;;1.92;0.50;;;40.00;33.10;;;;;;5032395;28;20033;-84
2022/09/05 13:11:16;;;;;;;0.60;0.30;;;40.00;32.70;;;;;;5032172;28;20033;-82
2022/09/05 13:13:46;;;;;;;1.08;0.40;;;40.20;32.90;;;;;;5022853;28;20056;-83
2022/09/05 13:16:22;;;;;;;2.30;0.40;;;40.30;32.60;;;;;;5013342;28;20080;-84
2022/09/05 13:18:52;;;;;;;1.17;0.40;;;40.40;32.20;;;;;;5012183;28;20022;-83
2022/09/05 13:21:22;;;;;;;1.48;0.50;;;40.60;32.20;;;;;;5013225;28;20053;-83
2022/09/05 13:24:02;;;;;;;1.85;0.45;;;40.70;32.20;;;;;;5011931;28;20382;-84
2022/09/05 13:27:06;;;;;;;1.38;0.40;;;40.70;32.20;;;;;;5011965;28;20116;-83
2022/09/05 13:29:53;;;;;;;1.08;0.40;;;40.70;31.80;;;;;;5013185;28;20026;-83
2022/09/05 13:32:30;;;;;;;1.58;0.40;;;40.70;31.70;;;;;;5012303;28;20364;-83
2022/09/05 13:35:11;;;;;;;0.57;0.30;;;40.80;31.80;;;;;;5012015;28;20077;-83
2022/09/05 13:38:07;;;;;;;1.85;0.40;;;40.90;31.30;;;;;;5011949;28;20026;-83
2022/09/05 13:40:40;;;;;;;2.80;0.50;;;41.00;31.40;;;;;;5011759;28;20118;-84
2022/09/05 13:43:14;;;;;;;2.60;0.47;;;41.20;31.90;;;;;;5011983;28;20022;-83
2022/09/05 13:46:09;;;;;;;1.25;0.55;;;41.40;32.00;;;;;;5012597;28;20467;-83
2022/09/05 13:48:53;;;;;;;2.08;0.70;;;41.70;31.30;;;;;;5011832;28;20022;-82
2022/09/05 13:51:26;;;;;;;3.22;0.75;;;41.80;31.40;;;;;;5013002;28;20033;-83
2022/09/05 13:54:23;;;;;;;2.75;0.50;;;42.00;31.30;;;;;;5012119;28;20114;-83
2022/09/05 13:57:17;;;;;;;2.97;0.57;;;42.20;30.60;;;;;;5012313;28;20036;-82
2022/09/05 14:00:05;;;;;;;2.65;0.60;;;42.20;30.60;;;;;;5011623;28;20433;-82
2022/09/05 14:02:37;;;;;;;2.53;0.60;;;42.10;30.40;;;;;;5015688;28;20088;-82